createdAt,value
2022-11-12T00:02:13.838Z,6.90
2022-11-12T00:05:18.090Z,6.80
2022-11-12T00:08:21.621Z,7.00
2022-11-12T00:11:15.821Z,7.00
2022-11-12T00:14:08.761Z,6.90
2022-11-12T00:17:00.446Z,6.90
2022-11-12T00:19:54.578Z,6.90
2022-11-12T00:22:45.904Z,6.90
2022-11-12T00:25:33.949Z,6.90
2022-11-12T00:28:29.537Z,7.10
2022-11-12T00:31:28.623Z,7.00
2022-11-12T00:34:24.776Z,7.00
2022-11-12T00:37:18.134Z,7.10
2022-11-12T00:40:10.279Z,7.10
2022-11-12T00:42:57.934Z,7.00
2022-11-12T00:45:45.449Z,7.00
2022-11-12T00:48:32.566Z,6.90
2022-11-12T00:51:20.792Z,6.80
2022-11-12T00:54:08.840Z,6.80
2022-11-12T00:56:55.709Z,6.70
2022-11-12T00:59:42.651Z,6.70
2022-11-12T01:02:29.683Z,6.80
2022-11-12T01:05:16.930Z,6.80
2022-11-12T01:08:05.753Z,6.80
2022-11-12T01:10:53.216Z,6.70
2022-11-12T01:13:44.367Z,6.70
2022-11-12T01:16:35.688Z,6.70
2022-11-12T01:19:23.083Z,6.70
2022-11-12T01:22:10.071Z,6.80
2022-11-12T01:24:58.189Z,6.70
2022-11-12T01:27:45.039Z,6.70
2022-11-12T01:30:32.009Z,6.70
2022-11-12T01:33:18.997Z,6.70
2022-11-12T01:36:07.156Z,6.60
2022-11-12T01:38:55.280Z,6.60
2022-11-12T01:41:44.437Z,6.50
2022-11-12T01:44:43.211Z,6.40
2022-11-12T01:47:35.245Z,6.30
2022-11-12T01:50:29.245Z,6.40
2022-11-12T01:53:16.548Z,6.30
2022-11-12T01:56:07.529Z,6.40
2022-11-12T01:59:03.441Z,6.40
2022-11-12T02:01:50.770Z,6.40
2022-11-12T02:04:41.659Z,6.30
2022-11-12T02:07:29.756Z,6.40
2022-11-12T02:10:17.455Z,6.40
2022-11-12T02:13:21.772Z,6.40
2022-11-12T02:16:12.251Z,6.40
2022-11-12T02:19:02.262Z,6.30
2022-11-12T02:21:50.744Z,6.30
2022-11-12T02:24:40.508Z,6.30
2022-11-12T02:27:28.960Z,6.20
2022-11-12T02:30:16.543Z,6.30
2022-11-12T02:33:03.985Z,6.20
2022-11-12T02:35:50.951Z,6.20
2022-11-12T02:38:39.250Z,6.20
2022-11-12T02:41:26.615Z,6.20
2022-11-12T02:44:13.891Z,6.20
2022-11-12T02:47:01.693Z,6.10
2022-11-12T02:49:49.283Z,6.10
2022-11-12T02:52:36.316Z,6.00
2022-11-12T02:55:25.286Z,6.00
2022-11-12T02:58:12.315Z,6.10
2022-11-12T03:00:59.817Z,6.00
2022-11-12T03:03:50.278Z,6.00
2022-11-12T03:06:37.588Z,6.00
2022-11-12T03:09:25.278Z,6.00
2022-11-12T03:12:13.843Z,6.00
2022-11-12T03:15:01.621Z,6.10
2022-11-12T03:17:48.801Z,6.10
2022-11-12T03:20:36.308Z,6.10
2022-11-12T03:23:24.197Z,6.10
2022-11-12T03:26:11.604Z,6.00
2022-11-12T03:29:00.467Z,6.00
2022-11-12T03:31:47.529Z,6.00
2022-11-12T03:34:35.049Z,5.90
2022-11-12T03:37:22.611Z,6.00
2022-11-12T03:40:11.680Z,6.00
2022-11-12T03:42:59.076Z,6.00
2022-11-12T03:45:48.132Z,5.90
2022-11-12T03:48:35.284Z,6.00
2022-11-12T03:51:22.977Z,5.90
2022-11-12T03:54:10.198Z,5.90
2022-11-12T03:56:57.523Z,5.80
2022-11-12T03:59:45.170Z,5.70
2022-11-12T04:02:34.232Z,5.80
2022-11-12T04:05:39.283Z,5.80
2022-11-12T04:08:39.670Z,5.90
2022-11-12T04:11:27.118Z,5.90
2022-11-12T04:14:14.595Z,5.90
2022-11-12T04:17:19.505Z,5.80
2022-11-12T04:20:27.838Z,5.70
2022-11-12T04:23:14.855Z,5.70
2022-11-12T04:26:34.325Z,5.70
2022-11-12T04:29:39.138Z,5.60
2022-11-12T04:32:27.172Z,5.70
2022-11-12T04:35:15.896Z,5.70
2022-11-12T04:38:03.189Z,5.80
2022-11-12T04:41:08.087Z,5.80
2022-11-12T04:44:12.799Z,5.70
2022-11-12T04:47:00.696Z,5.70
2022-11-12T04:49:47.875Z,5.60
2022-11-12T04:52:36.564Z,5.60
2022-11-12T04:55:23.949Z,5.70
2022-11-12T04:58:11.235Z,5.60
2022-11-12T05:00:58.787Z,5.60
2022-11-12T05:03:46.743Z,5.60
2022-11-12T05:06:52.946Z,5.50
2022-11-12T05:09:42.318Z,5.40
2022-11-12T05:12:29.550Z,5.40
2022-11-12T05:15:16.919Z,5.30
2022-11-12T05:18:04.501Z,5.40
2022-11-12T05:20:54.386Z,5.60
2022-11-12T05:23:41.496Z,5.40
2022-11-12T05:26:30.632Z,5.50
2022-11-12T05:29:20.033Z,5.40
2022-11-12T05:32:08.843Z,5.40
2022-11-12T05:34:56.255Z,5.40
2022-11-12T05:37:45.306Z,5.30
2022-11-12T05:40:33.012Z,5.30
2022-11-12T05:43:21.875Z,5.30
2022-11-12T05:46:09.356Z,5.30
2022-11-12T05:48:56.650Z,5.30
2022-11-12T05:51:44.648Z,5.30
2022-11-12T05:54:32.056Z,5.20
2022-11-12T05:57:19.323Z,5.20
2022-11-12T06:00:10.448Z,5.00
2022-11-12T06:02:59.376Z,5.10
2022-11-12T06:05:46.933Z,5.10
2022-11-12T06:08:34.153Z,5.10
2022-11-12T06:11:21.275Z,5.20
2022-11-12T06:14:08.355Z,5.20
2022-11-12T06:16:57.474Z,5.20
2022-11-12T06:19:47.952Z,5.20
2022-11-12T06:22:35.507Z,5.10
2022-11-12T06:25:22.809Z,5.10
2022-11-12T06:28:10.315Z,5.10
2022-11-12T06:30:58.615Z,5.00
2022-11-12T06:33:47.786Z,5.10
2022-11-12T06:36:35.319Z,5.10
2022-11-12T06:39:22.465Z,5.20
2022-11-12T06:42:10.086Z,5.20
2022-11-12T06:44:57.280Z,5.30
2022-11-12T06:47:44.833Z,5.40
2022-11-12T06:50:33.494Z,5.30
2022-11-12T06:53:24.274Z,5.30
2022-11-12T06:56:12.131Z,5.40
2022-11-12T06:58:59.809Z,5.40
2022-11-12T07:01:47.250Z,5.50
2022-11-12T07:04:35.068Z,5.60
2022-11-12T07:07:23.727Z,5.70
2022-11-12T07:10:11.845Z,5.80
2022-11-12T07:12:59.792Z,6.00
2022-11-12T07:15:47.268Z,6.10
2022-11-12T07:18:36.105Z,6.30
2022-11-12T07:21:23.185Z,6.50
2022-11-12T07:24:12.687Z,6.60
2022-11-12T07:26:59.641Z,6.60
2022-11-12T07:29:48.499Z,6.70
2022-11-12T07:32:41.930Z,6.70
2022-11-12T07:35:31.583Z,6.80
2022-11-12T07:38:18.557Z,6.80
2022-11-12T07:41:11.496Z,7.00
2022-11-12T07:43:58.944Z,7.10
2022-11-12T07:46:46.325Z,7.10
2022-11-12T07:49:34.269Z,7.30
2022-11-12T07:52:21.559Z,7.30
2022-11-12T07:55:09.897Z,7.30
